Iowa City Municipal Airport


Codes: KIOW/IOW
Name: Iowa City Municipal Airport
City: Iowa City
Country: United States
Elevation: 668 ft.
Website:
Wikipedia:

Photos at Iowa City Municipal Airport


   Photos courtesy of SpottingLog. You can add your own sightings and photos by signing up for a free trial today.



No photos found.

Weather at Iowa City Municipal Airport


Time (UTC)DescriptionTempratureWindCloud coverageVisibilityPressureHumidity
18-Apr-2024 00:00Broken Clouds15°C13 mph, NW70%10000m1012hPa62%
18-Apr-2024 03:00Scattered Clouds12°C4 mph, N43%10000m1014hPa72%
18-Apr-2024 06:00Scattered Clouds9°C2 mph, E28%10000m1016hPa79%
18-Apr-2024 09:00Scattered Clouds8°C7 mph, SE32%10000m1015hPa84%
18-Apr-2024 12:00Moderate Rain9°C2 mph, SE66%7586m1018hPa92%
18-Apr-2024 15:00Moderate Rain9°C11 mph, NE100%10000m1018hPa92%
18-Apr-2024 18:00Light Rain9°C7 mph, E100%10000m1018hPa94%
18-Apr-2024 21:00Light Rain9°C4 mph, N100%10000m1017hPa93%
19-Apr-2024 00:00Light Rain10°C9 mph, N97%10000m1017hPa84%
19-Apr-2024 03:00Few Clouds7°C7 mph, NW15%10000m1018hPa88%
19-Apr-2024 06:00Clear Sky5°C9 mph, NW10%10000m1020hPa81%
19-Apr-2024 09:00Few Clouds4°C7 mph, NW13%10000m1022hPa81%
19-Apr-2024 12:00Clear Sky3°C7 mph, W10%10000m1022hPa80%
19-Apr-2024 15:00Scattered Clouds10°C16 mph, W50%10000m1022hPa47%
19-Apr-2024 18:00Scattered Clouds13°C20 mph, W34%10000m1022hPa36%
19-Apr-2024 21:00Broken Clouds13°C18 mph, NW75%10000m1020hPa40%
20-Apr-2024 00:00Broken Clouds10°C13 mph, NW56%10000m1021hPa51%
20-Apr-2024 03:00Scattered Clouds6°C7 mph, W46%10000m1023hPa63%
20-Apr-2024 06:00Scattered Clouds5°C11 mph, W34%10000m1023hPa61%
20-Apr-2024 09:00Few Clouds4°C11 mph, W11%10000m1023hPa68%
20-Apr-2024 12:00Clear Sky3°C11 mph, NW7%10000m1025hPa66%
20-Apr-2024 15:00Clear Sky6°C16 mph, NW2%10000m1026hPa51%
20-Apr-2024 18:00Scattered Clouds9°C13 mph, NW31%10000m1025hPa47%
20-Apr-2024 21:00Overcast Clouds10°C13 mph, NW95%10000m1024hPa45%
21-Apr-2024 00:00Overcast Clouds8°C11 mph, NW95%10000m1024hPa57%
21-Apr-2024 03:00Broken Clouds4°C7 mph, NW51%10000m1025hPa68%
21-Apr-2024 06:00Scattered Clouds3°C7 mph, NW49%10000m1026hPa71%
21-Apr-2024 09:00Overcast Clouds2°C7 mph, NW85%10000m1025hPa74%
21-Apr-2024 12:00Overcast Clouds3°C4 mph, NW93%10000m1025hPa74%
21-Apr-2024 15:00Clear Sky8°C9 mph, NW0%10000m1025hPa53%
21-Apr-2024 18:00Clear Sky12°C9 mph, NW2%10000m1023hPa43%
21-Apr-2024 21:00Clear Sky13°C7 mph, NW7%10000m1021hPa40%
22-Apr-2024 00:00Clear Sky12°C4 mph, W7%10000m1020hPa55%
22-Apr-2024 03:00Clear Sky8°C4 mph, SW5%10000m1021hPa61%
22-Apr-2024 06:00Clear Sky6°C4 mph, SW3%10000m1020hPa71%
22-Apr-2024 09:00Clear Sky5°C7 mph, SW0%10000m1020hPa73%
22-Apr-2024 12:00Clear Sky5°C7 mph, SW1%10000m1020hPa77%
22-Apr-2024 15:00Broken Clouds11°C9 mph, SW70%10000m1018hPa59%
22-Apr-2024 18:00Overcast Clouds14°C13 mph, S85%10000m1016hPa52%
22-Apr-2024 21:00Overcast Clouds16°C16 mph, SW100%10000m1013hPa49%